sensor_id;sensor_type;location;lat;lon;timestamp;P1;durP1;ratioP1;P2;durP2;ratioP2
39890;SDS011;25564;53.312;9.790;2022-07-23T00:01:16;3.90;;;2.20;;
39890;SDS011;25564;53.312;9.790;2022-07-23T00:03:58;7.80;;;2.10;;
39890;SDS011;25564;53.312;9.790;2022-07-23T00:06:29;4.57;;;2.10;;
39890;SDS011;25564;53.312;9.790;2022-07-23T00:09:00;7.13;;;2.13;;
39890;SDS011;25564;53.312;9.790;2022-07-23T00:11:32;5.63;;;1.90;;
39890;SDS011;25564;53.312;9.790;2022-07-23T00:14:04;5.60;;;1.80;;
39890;SDS011;25564;53.312;9.790;2022-07-23T00:16:35;4.80;;;1.53;;
39890;SDS011;25564;53.312;9.790;2022-07-23T00:19:07;4.37;;;1.80;;
39890;SDS011;25564;53.312;9.790;2022-07-23T00:21:38;4.80;;;1.83;;
39890;SDS011;25564;53.312;9.790;2022-07-23T00:24:09;6.27;;;1.80;;
39890;SDS011;25564;53.312;9.790;2022-07-23T00:26:41;4.10;;;1.97;;
39890;SDS011;25564;53.312;9.790;2022-07-23T00:29:12;5.10;;;1.83;;
39890;SDS011;25564;53.312;9.790;2022-07-23T00:31:44;7.87;;;1.73;;
39890;SDS011;25564;53.312;9.790;2022-07-23T00:34:18;3.30;;;1.90;;
39890;SDS011;25564;53.312;9.790;2022-07-23T00:36:49;4.43;;;2.03;;
39890;SDS011;25564;53.312;9.790;2022-07-23T00:39:20;5.63;;;1.80;;
39890;SDS011;25564;53.312;9.790;2022-07-23T00:41:53;5.30;;;2.10;;
39890;SDS011;25564;53.312;9.790;2022-07-23T00:44:25;3.83;;;1.93;;
39890;SDS011;25564;53.312;9.790;2022-07-23T00:46:58;7.27;;;2.87;;
39890;SDS011;25564;53.312;9.790;2022-07-23T00:49:30;4.20;;;2.60;;
39890;SDS011;25564;53.312;9.790;2022-07-23T00:52:02;4.77;;;2.70;;
39890;SDS011;25564;53.312;9.790;2022-07-23T00:54:34;5.77;;;2.10;;
39890;SDS011;25564;53.312;9.790;2022-07-23T00:57:06;8.03;;;2.80;;
39890;SDS011;25564;53.312;9.790;2022-07-23T00:59:40;8.37;;;2.23;;
39890;SDS011;25564;53.312;9.790;2022-07-23T01:02:12;3.27;;;1.80;;
39890;SDS011;25564;53.312;9.790;2022-07-23T01:04:43;3.93;;;1.80;;
39890;SDS011;25564;53.312;9.790;2022-07-23T01:07:15;5.33;;;2.03;;
39890;SDS011;25564;53.312;9.790;2022-07-23T01:09:47;4.40;;;2.40;;
39890;SDS011;25564;53.312;9.790;2022-07-23T01:12:19;2.87;;;2.00;;
39890;SDS011;25564;53.312;9.790;2022-07-23T01:14:58;6.23;;;2.23;;
39890;SDS011;25564;53.312;9.790;2022-07-23T01:17:30;3.37;;;2.07;;
39890;SDS011;25564;53.312;9.790;2022-07-23T01:20:02;6.60;;;2.37;;
39890;SDS011;25564;53.312;9.790;2022-07-23T01:22:35;6.53;;;1.93;;
39890;SDS011;25564;53.312;9.790;2022-07-23T01:25:06;4.30;;;2.00;;
39890;SDS011;25564;53.312;9.790;2022-07-23T01:27:38;5.33;;;2.13;;
39890;SDS011;25564;53.312;9.790;2022-07-23T01:30:10;4.23;;;2.03;;
39890;SDS011;25564;53.312;9.790;2022-07-23T01:32:42;2.53;;;1.80;;
39890;SDS011;25564;53.312;9.790;2022-07-23T01:35:13;4.60;;;2.23;;
39890;SDS011;25564;53.312;9.790;2022-07-23T01:37:45;5.37;;;2.20;;
39890;SDS011;25564;53.312;9.790;2022-07-23T01:40:16;3.60;;;1.93;;
39890;SDS011;25564;53.312;9.790;2022-07-23T01:42:49;3.73;;;1.83;;
39890;SDS011;25564;53.312;9.790;2022-07-23T01:45:20;7.93;;;2.50;;
39890;SDS011;25564;53.312;9.790;2022-07-23T01:47:52;6.90;;;2.70;;
39890;SDS011;25564;53.312;9.790;2022-07-23T01:50:23;10.87;;;2.50;;
39890;SDS011;25564;53.312;9.790;2022-07-23T01:52:55;5.43;;;2.50;;
39890;SDS011;25564;53.312;9.790;2022-07-23T01:55:26;4.83;;;2.37;;
39890;SDS011;25564;53.312;9.790;2022-07-23T01:57:58;4.50;;;2.37;;
39890;SDS011;25564;53.312;9.790;2022-07-23T02:00:29;5.43;;;2.27;;
39890;SDS011;25564;53.312;9.790;2022-07-23T02:03:00;4.47;;;1.93;;
39890;SDS011;25564;53.312;9.790;2022-07-23T02:05:32;6.03;;;2.60;;
39890;SDS011;25564;53.312;9.790;2022-07-23T02:08:03;3.17;;;1.97;;
39890;SDS011;25564;53.312;9.790;2022-07-23T02:10:34;5.27;;;2.40;;
39890;SDS011;25564;53.312;9.790;2022-07-23T02:13:06;5.50;;;2.20;;
39890;SDS011;25564;53.312;9.790;2022-07-23T02:15:37;6.37;;;1.97;;
39890;SDS011;25564;53.312;9.790;2022-07-23T02:18:09;5.53;;;2.70;;
39890;SDS011;25564;53.312;9.790;2022-07-23T02:20:40;5.83;;;2.50;;
39890;SDS011;25564;53.312;9.790;2022-07-23T02:23:13;5.23;;;2.17;;
39890;SDS011;25564;53.312;9.790;2022-07-23T02:25:44;5.53;;;2.30;;
39890;SDS011;25564;53.312;9.790;2022-07-23T02:28:16;4.10;;;2.40;;
39890;SDS011;25564;53.312;9.790;2022-07-23T02:30:47;4.63;;;2.83;;
39890;SDS011;25564;53.312;9.790;2022-07-23T02:33:18;3.63;;;2.13;;
39890;SDS011;25564;53.312;9.790;2022-07-23T02:35:49;7.40;;;2.90;;
39890;SDS011;25564;53.312;9.790;2022-07-23T02:38:21;3.87;;;2.40;;
39890;SDS011;25564;53.312;9.790;2022-07-23T02:40:52;7.00;;;2.70;;
39890;SDS011;25564;53.312;9.790;2022-07-23T02:43:24;8.33;;;2.73;;
39890;SDS011;25564;53.312;9.790;2022-07-23T02:45:55;6.77;;;2.37;;
39890;SDS011;25564;53.312;9.790;2022-07-23T02:48:26;3.50;;;2.50;;
39890;SDS011;25564;53.312;9.790;2022-07-23T02:50:58;5.07;;;2.60;;
39890;SDS011;25564;53.312;9.790;2022-07-23T02:53:29;5.10;;;2.60;;
39890;SDS011;25564;53.312;9.790;2022-07-23T02:56:00;6.57;;;2.40;;
39890;SDS011;25564;53.312;9.790;2022-07-23T02:58:32;3.80;;;2.90;;
39890;SDS011;25564;53.312;9.790;2022-07-23T03:01:03;7.03;;;2.90;;
39890;SDS011;25564;53.312;9.790;2022-07-23T03:03:35;5.07;;;2.70;;
39890;SDS011;25564;53.312;9.790;2022-07-23T03:06:06;3.90;;;2.50;;
39890;SDS011;25564;53.312;9.790;2022-07-23T03:08:38;6.20;;;2.60;;
39890;SDS011;25564;53.312;9.790;2022-07-23T03:11:09;4.17;;;2.33;;
39890;SDS011;25564;53.312;9.790;2022-07-23T03:13:43;9.37;;;3.63;;
39890;SDS011;25564;53.312;9.790;2022-07-23T03:16:15;4.53;;;2.37;;
39890;SDS011;25564;53.312;9.790;2022-07-23T03:18:46;5.23;;;2.90;;
39890;SDS011;25564;53.312;9.790;2022-07-23T03:21:18;3.97;;;2.53;;
39890;SDS011;25564;53.312;9.790;2022-07-23T03:23:50;3.13;;;2.40;;
39890;SDS011;25564;53.312;9.790;2022-07-23T03:26:21;5.43;;;2.30;;
39890;SDS011;25564;53.312;9.790;2022-07-23T03:28:56;3.87;;;2.80;;
39890;SDS011;25564;53.312;9.790;2022-07-23T03:31:27;7.93;;;2.67;;
39890;SDS011;25564;53.312;9.790;2022-07-23T03:33:59;7.17;;;3.07;;
39890;SDS011;25564;53.312;9.790;2022-07-23T03:36:30;6.83;;;2.87;;
39890;SDS011;25564;53.312;9.790;2022-07-23T03:39:02;6.73;;;2.50;;
39890;SDS011;25564;53.312;9.790;2022-07-23T03:41:35;5.47;;;2.60;;
39890;SDS011;25564;53.312;9.790;2022-07-23T03:44:07;7.63;;;3.70;;
39890;SDS011;25564;53.312;9.790;2022-07-23T03:46:38;14.43;;;3.90;;
39890;SDS011;25564;53.312;9.790;2022-07-23T03:49:10;5.47;;;3.20;;
39890;SDS011;25564;53.312;9.790;2022-07-23T03:51:41;4.77;;;2.90;;
39890;SDS011;25564;53.312;9.790;2022-07-23T03:54:12;5.03;;;3.30;;
39890;SDS011;25564;53.312;9.790;2022-07-23T03:56:44;11.27;;;3.33;;
39890;SDS011;25564;53.312;9.790;2022-07-23T03:59:15;6.00;;;3.00;;
39890;SDS011;25564;53.312;9.790;2022-07-23T04:01:53;4.67;;;3.20;;
39890;SDS011;25564;53.312;9.790;2022-07-23T04:04:25;7.47;;;3.73;;
39890;SDS011;25564;53.312;9.790;2022-07-23T04:06:56;6.30;;;3.30;;
39890;SDS011;25564;53.312;9.790;2022-07-23T04:09:28;7.67;;;3.13;;
39890;SDS011;25564;53.312;9.790;2022-07-23T04:11:59;5.43;;;2.63;;
39890;SDS011;25564;53.312;9.790;2022-07-23T04:14:30;4.77;;;2.97;;
39890;SDS011;25564;53.312;9.790;2022-07-23T04:17:02;9.47;;;3.23;;
39890;SDS011;25564;53.312;9.790;2022-07-23T04:19:33;5.50;;;2.97;;
39890;SDS011;25564;53.312;9.790;2022-07-23T04:22:07;7.23;;;3.20;;
39890;SDS011;25564;53.312;9.790;2022-07-23T04:24:39;7.20;;;3.20;;
39890;SDS011;25564;53.312;9.790;2022-07-23T04:27:10;4.77;;;2.73;;
39890;SDS011;25564;53.312;9.790;2022-07-23T04:29:41;5.63;;;2.83;;
39890;SDS011;25564;53.312;9.790;2022-07-23T04:32:13;5.27;;;3.07;;
39890;SDS011;25564;53.312;9.790;2022-07-23T04:34:44;6.87;;;3.37;;
39890;SDS011;25564;53.312;9.790;2022-07-23T04:37:15;7.47;;;3.77;;
39890;SDS011;25564;53.312;9.790;2022-07-23T04:39:47;6.80;;;3.50;;
39890;SDS011;25564;53.312;9.790;2022-07-23T04:42:18;4.40;;;3.13;;
39890;SDS011;25564;53.312;9.790;2022-07-23T04:44:49;8.17;;;3.90;;
39890;SDS011;25564;53.312;9.790;2022-07-23T04:47:21;5.93;;;3.53;;
39890;SDS011;25564;53.312;9.790;2022-07-23T04:49:53;8.97;;;3.43;;
39890;SDS011;25564;53.312;9.790;2022-07-23T04:52:24;7.60;;;3.23;;
39890;SDS011;25564;53.312;9.790;2022-07-23T04:54:55;11.27;;;3.97;;
39890;SDS011;25564;53.312;9.790;2022-07-23T04:57:27;8.10;;;3.40;;
39890;SDS011;25564;53.312;9.790;2022-07-23T04:59:58;4.47;;;3.20;;
39890;SDS011;25564;53.312;9.790;2022-07-23T05:02:30;9.90;;;3.23;;
39890;SDS011;25564;53.312;9.790;2022-07-23T05:05:01;7.03;;;3.30;;
39890;SDS011;25564;53.312;9.790;2022-07-23T05:07:32;7.13;;;4.40;;
39890;SDS011;25564;53.312;9.790;2022-07-23T05:10:04;5.27;;;3.47;;
39890;SDS011;25564;53.312;9.790;2022-07-23T05:12:36;9.63;;;3.57;;
39890;SDS011;25564;53.312;9.790;2022-07-23T05:15:08;6.90;;;3.63;;
39890;SDS011;25564;53.312;9.790;2022-07-23T05:17:39;7.00;;;3.83;;
39890;SDS011;25564;53.312;9.790;2022-07-23T05:20:11;6.13;;;3.40;;
39890;SDS011;25564;53.312;9.790;2022-07-23T05:22:42;6.90;;;3.43;;
39890;SDS011;25564;53.312;9.790;2022-07-23T05:25:14;8.10;;;3.20;;
39890;SDS011;25564;53.312;9.790;2022-07-23T05:27:45;7.40;;;3.73;;
39890;SDS011;25564;53.312;9.790;2022-07-23T05:30:16;7.23;;;3.73;;
39890;SDS011;25564;53.312;9.790;2022-07-23T05:32:48;9.10;;;3.03;;
39890;SDS011;25564;53.312;9.790;2022-07-23T05:35:20;7.43;;;3.43;;
39890;SDS011;25564;53.312;9.790;2022-07-23T05:37:52;5.93;;;3.57;;
39890;SDS011;25564;53.312;9.790;2022-07-23T05:40:24;9.77;;;4.17;;
39890;SDS011;25564;53.312;9.790;2022-07-23T05:42:55;6.87;;;3.50;;
39890;SDS011;25564;53.312;9.790;2022-07-23T05:45:26;7.53;;;3.63;;
39890;SDS011;25564;53.312;9.790;2022-07-23T05:47:58;6.33;;;3.70;;
39890;SDS011;25564;53.312;9.790;2022-07-23T05:50:29;7.77;;;4.20;;
39890;SDS011;25564;53.312;9.790;2022-07-23T05:53:01;7.73;;;3.37;;
39890;SDS011;25564;53.312;9.790;2022-07-23T05:55:32;8.23;;;3.50;;
39890;SDS011;25564;53.312;9.790;2022-07-23T05:58:04;7.07;;;3.80;;
39890;SDS011;25564;53.312;9.790;2022-07-23T06:00:35;7.30;;;3.93;;
39890;SDS011;25564;53.312;9.790;2022-07-23T06:03:07;7.97;;;3.70;;
39890;SDS011;25564;53.312;9.790;2022-07-23T06:05:38;5.33;;;3.80;;
39890;SDS011;25564;53.312;9.790;2022-07-23T06:08:09;6.67;;;4.10;;
39890;SDS011;25564;53.312;9.790;2022-07-23T06:10:41;8.37;;;3.70;;
39890;SDS011;25564;53.312;9.790;2022-07-23T06:13:12;9.90;;;4.57;;
39890;SDS011;25564;53.312;9.790;2022-07-23T06:15:44;6.60;;;3.50;;
39890;SDS011;25564;53.312;9.790;2022-07-23T06:18:15;5.53;;;3.73;;
39890;SDS011;25564;53.312;9.790;2022-07-23T06:20:47;7.53;;;3.90;;
39890;SDS011;25564;53.312;9.790;2022-07-23T06:23:21;4.70;;;2.97;;
39890;SDS011;25564;53.312;9.790;2022-07-23T06:25:53;9.90;;;3.80;;
39890;SDS011;25564;53.312;9.790;2022-07-23T06:28:24;7.60;;;4.10;;
39890;SDS011;25564;53.312;9.790;2022-07-23T06:30:55;7.33;;;3.53;;
39890;SDS011;25564;53.312;9.790;2022-07-23T06:33:28;4.93;;;2.87;;
39890;SDS011;25564;53.312;9.790;2022-07-23T06:35:59;8.37;;;3.47;;
39890;SDS011;25564;53.312;9.790;2022-07-23T06:38:31;5.90;;;3.07;;
39890;SDS011;25564;53.312;9.790;2022-07-23T06:41:02;8.32;;;3.28;;
39890;SDS011;25564;53.312;9.790;2022-07-23T06:43:34;4.82;;;2.88;;
39890;SDS011;25564;53.312;9.790;2022-07-23T06:46:05;11.05;;;3.47;;
39890;SDS011;25564;53.312;9.790;2022-07-23T06:48:37;9.80;;;3.73;;
39890;SDS011;25564;53.312;9.790;2022-07-23T06:51:08;7.77;;;2.73;;
39890;SDS011;25564;53.312;9.790;2022-07-23T06:53:39;6.05;;;2.88;;
39890;SDS011;25564;53.312;9.790;2022-07-23T06:56:12;7.95;;;3.17;;
39890;SDS011;25564;53.312;9.790;2022-07-23T06:58:43;5.90;;;2.92;;
39890;SDS011;25564;53.312;9.790;2022-07-23T07:01:14;9.30;;;2.70;;
39890;SDS011;25564;53.312;9.790;2022-07-23T07:03:46;5.15;;;2.65;;
39890;SDS011;25564;53.312;9.790;2022-07-23T07:06:18;6.95;;;3.38;;
39890;SDS011;25564;53.312;9.790;2022-07-23T07:08:49;6.32;;;2.80;;
39890;SDS011;25564;53.312;9.790;2022-07-23T07:11:20;6.95;;;2.47;;
39890;SDS011;25564;53.312;9.790;2022-07-23T07:13:52;5.85;;;3.08;;
39890;SDS011;25564;53.312;9.790;2022-07-23T07:16:23;8.35;;;2.80;;
39890;SDS011;25564;53.312;9.790;2022-07-23T07:19:00;7.25;;;2.92;;
39890;SDS011;25564;53.312;9.790;2022-07-23T07:21:33;5.38;;;2.80;;
39890;SDS011;25564;53.312;9.790;2022-07-23T07:24:04;5.45;;;2.70;;
39890;SDS011;25564;53.312;9.790;2022-07-23T07:26:36;4.90;;;2.67;;
39890;SDS011;25564;53.312;9.790;2022-07-23T07:29:09;5.35;;;1.90;;
39890;SDS011;25564;53.312;9.790;2022-07-23T07:31:41;7.38;;;2.25;;
39890;SDS011;25564;53.312;9.790;2022-07-23T07:34:12;3.70;;;1.88;;
39890;SDS011;25564;53.312;9.790;2022-07-23T07:36:44;2.90;;;1.30;;
39890;SDS011;25564;53.312;9.790;2022-07-23T07:39:15;4.03;;;1.42;;
39890;SDS011;25564;53.312;9.790;2022-07-23T07:41:46;2.90;;;1.30;;
39890;SDS011;25564;53.312;9.790;2022-07-23T07:44:18;2.15;;;0.93;;
39890;SDS011;25564;53.312;9.790;2022-07-23T07:46:49;3.05;;;1.25;;
39890;SDS011;25564;53.312;9.790;2022-07-23T07:49:21;4.65;;;1.38;;
39890;SDS011;25564;53.312;9.790;2022-07-23T07:51:52;3.78;;;1.38;;
39890;SDS011;25564;53.312;9.790;2022-07-23T07:54:24;3.83;;;1.23;;
39890;SDS011;25564;53.312;9.790;2022-07-23T07:56:55;3.63;;;1.42;;
39890;SDS011;25564;53.312;9.790;2022-07-23T07:59:26;7.18;;;2.08;;
39890;SDS011;25564;53.312;9.790;2022-07-23T08:02:03;5.03;;;1.30;;
39890;SDS011;25564;53.312;9.790;2022-07-23T08:04:35;4.43;;;1.10;;
39890;SDS011;25564;53.312;9.790;2022-07-23T08:07:06;1.95;;;0.95;;
39890;SDS011;25564;53.312;9.790;2022-07-23T08:09:37;2.88;;;1.30;;
39890;SDS011;25564;53.312;9.790;2022-07-23T08:12:09;2.65;;;0.80;;
39890;SDS011;25564;53.312;9.790;2022-07-23T08:14:40;3.13;;;0.90;;
39890;SDS011;25564;53.312;9.790;2022-07-23T08:17:12;1.23;;;0.70;;
39890;SDS011;25564;53.312;9.790;2022-07-23T08:19:45;2.47;;;0.80;;
39890;SDS011;25564;53.312;9.790;2022-07-23T08:22:16;2.22;;;0.90;;
39890;SDS011;25564;53.312;9.790;2022-07-23T08:24:48;1.13;;;0.90;;
39890;SDS011;25564;53.312;9.790;2022-07-23T08:27:19;2.38;;;0.73;;
39890;SDS011;25564;53.312;9.790;2022-07-23T08:29:50;2.83;;;0.60;;
39890;SDS011;25564;53.312;9.790;2022-07-23T08:32:22;1.98;;;0.90;;
39890;SDS011;25564;53.312;9.790;2022-07-23T08:35:13;2.50;;;0.80;;
39890;SDS011;25564;53.312;9.790;2022-07-23T08:37:45;1.40;;;0.80;;
39890;SDS011;25564;53.312;9.790;2022-07-23T08:40:16;0.88;;;0.77;;
39890;SDS011;25564;53.312;9.790;2022-07-23T08:42:49;2.20;;;0.80;;
39890;SDS011;25564;53.312;9.790;2022-07-23T08:45:22;1.75;;;0.90;;
39890;SDS011;25564;53.312;9.790;2022-07-23T08:47:57;2.15;;;0.60;;
39890;SDS011;25564;53.312;9.790;2022-07-23T08:50:36;2.15;;;0.57;;
39890;SDS011;25564;53.312;9.790;2022-07-23T08:53:09;3.05;;;0.60;;
39890;SDS011;25564;53.312;9.790;2022-07-23T08:55:44;1.65;;;0.65;;
39890;SDS011;25564;53.312;9.790;2022-07-23T09:00:48;1.98;;;0.70;;
39890;SDS011;25564;53.312;9.790;2022-07-23T09:03:24;1.35;;;0.55;;
39890;SDS011;25564;53.312;9.790;2022-07-23T09:05:57;2.78;;;0.85;;
39890;SDS011;25564;53.312;9.790;2022-07-23T09:11:12;1.40;;;0.50;;
39890;SDS011;25564;53.312;9.790;2022-07-23T09:13:53;1.58;;;0.60;;
39890;SDS011;25564;53.312;9.790;2022-07-23T09:16:26;1.33;;;0.43;;
39890;SDS011;25564;53.312;9.790;2022-07-23T09:19:03;1.27;;;0.70;;
39890;SDS011;25564;53.312;9.790;2022-07-23T09:21:37;1.10;;;0.60;;
39890;SDS011;25564;53.312;9.790;2022-07-23T09:24:10;1.30;;;0.60;;
39890;SDS011;25564;53.312;9.790;2022-07-23T09:26:46;2.38;;;0.60;;
39890;SDS011;25564;53.312;9.790;2022-07-23T09:29:20;2.40;;;1.38;;
39890;SDS011;25564;53.312;9.790;2022-07-23T09:31:54;2.45;;;0.75;;
39890;SDS011;25564;53.312;9.790;2022-07-23T09:34:27;2.13;;;0.60;;
39890;SDS011;25564;53.312;9.790;2022-07-23T09:37:15;1.02;;;0.50;;
39890;SDS011;25564;53.312;9.790;2022-07-23T09:39:48;2.28;;;0.50;;
39890;SDS011;25564;53.312;9.790;2022-07-23T09:42:25;1.27;;;0.52;;
39890;SDS011;25564;53.312;9.790;2022-07-23T09:44:58;1.02;;;0.45;;
39890;SDS011;25564;53.312;9.790;2022-07-23T09:47:30;1.38;;;0.57;;
39890;SDS011;25564;53.312;9.790;2022-07-23T09:50:04;1.77;;;0.55;;
39890;SDS011;25564;53.312;9.790;2022-07-23T09:52:44;2.25;;;0.50;;
39890;SDS011;25564;53.312;9.790;2022-07-23T09:55:18;2.63;;;0.40;;
39890;SDS011;25564;53.312;9.790;2022-07-23T09:57:50;0.65;;;0.40;;
39890;SDS011;25564;53.312;9.790;2022-07-23T10:00:24;1.70;;;0.35;;
39890;SDS011;25564;53.312;9.790;2022-07-23T10:02:57;0.52;;;0.30;;
39890;SDS011;25564;53.312;9.790;2022-07-23T10:05:30;0.40;;;0.40;;
39890;SDS011;25564;53.312;9.790;2022-07-23T10:08:02;1.45;;;0.40;;
39890;SDS011;25564;53.312;9.790;2022-07-23T10:10:34;1.25;;;0.38;;
39890;SDS011;25564;53.312;9.790;2022-07-23T10:13:05;1.80;;;0.60;;
39890;SDS011;25564;53.312;9.790;2022-07-23T10:15:56;2.13;;;0.45;;
39890;SDS011;25564;53.312;9.790;2022-07-23T10:18:28;1.17;;;0.47;;
39890;SDS011;25564;53.312;9.790;2022-07-23T10:21:02;0.95;;;0.43;;
39890;SDS011;25564;53.312;9.790;2022-07-23T10:29:36;1.30;;;0.55;;
39890;SDS011;25564;53.312;9.790;2022-07-23T10:32:21;1.42;;;0.55;;
39890;SDS011;25564;53.312;9.790;2022-07-23T10:40:58;1.50;;;0.60;;
39890;SDS011;25564;53.312;9.790;2022-07-23T10:43:31;36.88;;;2.75;;
39890;SDS011;25564;53.312;9.790;2022-07-23T10:49:43;5.45;;;0.80;;
39890;SDS011;25564;53.312;9.790;2022-07-23T10:52:16;1.00;;;0.52;;
39890;SDS011;25564;53.312;9.790;2022-07-23T10:54:49;0.70;;;0.43;;
39890;SDS011;25564;53.312;9.790;2022-07-23T10:57:25;1.48;;;0.45;;
39890;SDS011;25564;53.312;9.790;2022-07-23T11:02:54;1.80;;;0.60;;
39890;SDS011;25564;53.312;9.790;2022-07-23T11:05:42;1.80;;;0.65;;
39890;SDS011;25564;53.312;9.790;2022-07-23T11:08:17;1.42;;;0.73;;
39890;SDS011;25564;53.312;9.790;2022-07-23T11:10:52;0.50;;;0.40;;
39890;SDS011;25564;53.312;9.790;2022-07-23T11:13:25;1.85;;;0.63;;
39890;SDS011;25564;53.312;9.790;2022-07-23T11:23:58;0.45;;;0.40;;
39890;SDS011;25564;53.312;9.790;2022-07-23T11:32:21;1.63;;;0.50;;
39890;SDS011;25564;53.312;9.790;2022-07-23T11:34:55;1.02;;;0.40;;
39890;SDS011;25564;53.312;9.790;2022-07-23T11:40:12;0.70;;;0.50;;
39890;SDS011;25564;53.312;9.790;2022-07-23T11:42:52;1.17;;;0.43;;
39890;SDS011;25564;53.312;9.790;2022-07-23T11:45:30;0.57;;;0.32;;
39890;SDS011;25564;53.312;9.790;2022-07-23T11:48:04;3.10;;;0.68;;
39890;SDS011;25564;53.312;9.790;2022-07-23T11:50:37;3.17;;;0.50;;
39890;SDS011;25564;53.312;9.790;2022-07-23T11:53:09;0.93;;;0.43;;
39890;SDS011;25564;53.312;9.790;2022-07-23T11:55:40;0.90;;;0.60;;
39890;SDS011;25564;53.312;9.790;2022-07-23T11:58:12;1.10;;;0.60;;
39890;SDS011;25564;53.312;9.790;2022-07-23T12:00:43;2.03;;;0.50;;
39890;SDS011;25564;53.312;9.790;2022-07-23T12:03:15;1.13;;;0.50;;
39890;SDS011;25564;53.312;9.790;2022-07-23T12:05:47;1.90;;;0.80;;
39890;SDS011;25564;53.312;9.790;2022-07-23T12:08:18;2.17;;;0.70;;
39890;SDS011;25564;53.312;9.790;2022-07-23T12:10:50;1.08;;;0.47;;
39890;SDS011;25564;53.312;9.790;2022-07-23T12:13:22;1.25;;;0.60;;
39890;SDS011;25564;53.312;9.790;2022-07-23T12:15:56;1.85;;;0.55;;
39890;SDS011;25564;53.312;9.790;2022-07-23T12:18:28;0.60;;;0.40;;
39890;SDS011;25564;53.312;9.790;2022-07-23T12:21:02;1.05;;;0.50;;
39890;SDS011;25564;53.312;9.790;2022-07-23T12:23:36;1.73;;;0.40;;
39890;SDS011;25564;53.312;9.790;2022-07-23T12:26:09;1.25;;;0.60;;
39890;SDS011;25564;53.312;9.790;2022-07-23T12:28:42;0.60;;;0.30;;
39890;SDS011;25564;53.312;9.790;2022-07-23T12:31:26;0.75;;;0.40;;
39890;SDS011;25564;53.312;9.790;2022-07-23T12:36:37;0.40;;;0.40;;
39890;SDS011;25564;53.312;9.790;2022-07-23T12:39:12;0.80;;;0.32;;
39890;SDS011;25564;53.312;9.790;2022-07-23T12:42:00;1.05;;;0.38;;
39890;SDS011;25564;53.312;9.790;2022-07-23T12:44:32;0.60;;;0.45;;
39890;SDS011;25564;53.312;9.790;2022-07-23T12:47:09;1.30;;;0.50;;
39890;SDS011;25564;53.312;9.790;2022-07-23T12:49:40;1.45;;;0.50;;
39890;SDS011;25564;53.312;9.790;2022-07-23T12:52:15;0.77;;;0.47;;
39890;SDS011;25564;53.312;9.790;2022-07-23T12:54:47;0.60;;;0.52;;
39890;SDS011;25564;53.312;9.790;2022-07-23T12:57:19;2.47;;;0.70;;
39890;SDS011;25564;53.312;9.790;2022-07-23T13:00:19;2.10;;;0.82;;
39890;SDS011;25564;53.312;9.790;2022-07-23T13:02:53;4.00;;;0.38;;
39890;SDS011;25564;53.312;9.790;2022-07-23T13:05:24;1.77;;;0.63;;
39890;SDS011;25564;53.312;9.790;2022-07-23T13:07:56;1.10;;;0.38;;
39890;SDS011;25564;53.312;9.790;2022-07-23T13:10:27;0.55;;;0.38;;
39890;SDS011;25564;53.312;9.790;2022-07-23T13:12:59;2.20;;;0.70;;
39890;SDS011;25564;53.312;9.790;2022-07-23T13:15:30;0.75;;;0.50;;
39890;SDS011;25564;53.312;9.790;2022-07-23T13:18:02;1.02;;;0.50;;
39890;SDS011;25564;53.312;9.790;2022-07-23T13:20:34;0.75;;;0.38;;
39890;SDS011;25564;53.312;9.790;2022-07-23T13:23:06;2.78;;;0.60;;
39890;SDS011;25564;53.312;9.790;2022-07-23T13:25:38;0.90;;;0.40;;
39890;SDS011;25564;53.312;9.790;2022-07-23T13:28:09;4.13;;;0.63;;
39890;SDS011;25564;53.312;9.790;2022-07-23T13:30:41;1.02;;;0.43;;
39890;SDS011;25564;53.312;9.790;2022-07-23T13:33:13;1.35;;;0.50;;
39890;SDS011;25564;53.312;9.790;2022-07-23T13:35:45;0.70;;;0.60;;
39890;SDS011;25564;53.312;9.790;2022-07-23T13:38:18;1.08;;;0.60;;
39890;SDS011;25564;53.312;9.790;2022-07-23T13:40:51;1.50;;;0.50;;
39890;SDS011;25564;53.312;9.790;2022-07-23T13:43:24;4.03;;;0.63;;
39890;SDS011;25564;53.312;9.790;2022-07-23T13:45:56;0.65;;;0.52;;
39890;SDS011;25564;53.312;9.790;2022-07-23T13:48:28;0.40;;;0.40;;
39890;SDS011;25564;53.312;9.790;2022-07-23T13:51:00;1.77;;;0.50;;
39890;SDS011;25564;53.312;9.790;2022-07-23T13:53:31;1.73;;;0.60;;
39890;SDS011;25564;53.312;9.790;2022-07-23T13:56:03;1.23;;;0.52;;
39890;SDS011;25564;53.312;9.790;2022-07-23T13:58:35;1.48;;;0.70;;
39890;SDS011;25564;53.312;9.790;2022-07-23T14:01:06;1.05;;;0.47;;
39890;SDS011;25564;53.312;9.790;2022-07-23T14:03:38;2.33;;;0.55;;
39890;SDS011;25564;53.312;9.790;2022-07-23T14:06:10;1.80;;;0.57;;
39890;SDS011;25564;53.312;9.790;2022-07-23T14:08:46;3.75;;;0.70;;
39890;SDS011;25564;53.312;9.790;2022-07-23T14:11:18;1.85;;;0.50;;
39890;SDS011;25564;53.312;9.790;2022-07-23T14:13:49;1.13;;;0.68;;
39890;SDS011;25564;53.312;9.790;2022-07-23T14:16:21;0.40;;;0.40;;
39890;SDS011;25564;53.312;9.790;2022-07-23T14:18:52;2.03;;;1.02;;
39890;SDS011;25564;53.312;9.790;2022-07-23T14:21:24;1.48;;;0.50;;
39890;SDS011;25564;53.312;9.790;2022-07-23T14:23:57;1.90;;;0.60;;
39890;SDS011;25564;53.312;9.790;2022-07-23T14:26:28;2.05;;;0.50;;
39890;SDS011;25564;53.312;9.790;2022-07-23T14:29:00;1.83;;;0.65;;
39890;SDS011;25564;53.312;9.790;2022-07-23T14:31:32;0.88;;;0.57;;
39890;SDS011;25564;53.312;9.790;2022-07-23T14:34:05;1.58;;;0.60;;
39890;SDS011;25564;53.312;9.790;2022-07-23T14:36:37;1.23;;;0.68;;
39890;SDS011;25564;53.312;9.790;2022-07-23T14:39:09;3.22;;;0.60;;
39890;SDS011;25564;53.312;9.790;2022-07-23T14:41:42;1.67;;;0.60;;
39890;SDS011;25564;53.312;9.790;2022-07-23T14:44:14;0.60;;;0.50;;
39890;SDS011;25564;53.312;9.790;2022-07-23T14:46:45;1.63;;;0.50;;
39890;SDS011;25564;53.312;9.790;2022-07-23T14:49:17;0.98;;;0.57;;
39890;SDS011;25564;53.312;9.790;2022-07-23T14:51:48;0.98;;;0.60;;
39890;SDS011;25564;53.312;9.790;2022-07-23T14:54:20;0.43;;;0.40;;
39890;SDS011;25564;53.312;9.790;2022-07-23T14:56:55;0.60;;;0.50;;
39890;SDS011;25564;53.312;9.790;2022-07-23T14:59:27;1.02;;;0.80;;
39890;SDS011;25564;53.312;9.790;2022-07-23T15:02:00;0.90;;;0.43;;
39890;SDS011;25564;53.312;9.790;2022-07-23T15:04:31;1.23;;;0.60;;
39890;SDS011;25564;53.312;9.790;2022-07-23T15:07:08;1.85;;;0.50;;
39890;SDS011;25564;53.312;9.790;2022-07-23T15:09:40;0.80;;;0.45;;
39890;SDS011;25564;53.312;9.790;2022-07-23T15:12:12;0.70;;;0.40;;
39890;SDS011;25564;53.312;9.790;2022-07-23T15:14:43;1.15;;;0.70;;
39890;SDS011;25564;53.312;9.790;2022-07-23T15:17:15;1.27;;;0.57;;
39890;SDS011;25564;53.312;9.790;2022-07-23T15:19:46;3.20;;;0.88;;
39890;SDS011;25564;53.312;9.790;2022-07-23T15:22:20;2.13;;;0.60;;
39890;SDS011;25564;53.312;9.790;2022-07-23T15:24:52;2.45;;;0.52;;
39890;SDS011;25564;53.312;9.790;2022-07-23T15:27:23;1.27;;;0.50;;
39890;SDS011;25564;53.312;9.790;2022-07-23T15:29:55;2.38;;;0.63;;
39890;SDS011;25564;53.312;9.790;2022-07-23T15:32:27;2.13;;;0.60;;
39890;SDS011;25564;53.312;9.790;2022-07-23T15:34:58;1.55;;;0.60;;
39890;SDS011;25564;53.312;9.790;2022-07-23T15:37:29;0.73;;;0.50;;
39890;SDS011;25564;53.312;9.790;2022-07-23T15:40:01;1.88;;;0.63;;
39890;SDS011;25564;53.312;9.790;2022-07-23T15:42:36;1.13;;;0.85;;
39890;SDS011;25564;53.312;9.790;2022-07-23T15:45:08;1.13;;;0.63;;
39890;SDS011;25564;53.312;9.790;2022-07-23T15:47:41;1.20;;;0.55;;
39890;SDS011;25564;53.312;9.790;2022-07-23T15:50:12;2.42;;;0.70;;
39890;SDS011;25564;53.312;9.790;2022-07-23T15:52:44;1.75;;;0.40;;
39890;SDS011;25564;53.312;9.790;2022-07-23T15:55:15;0.60;;;0.45;;
39890;SDS011;25564;53.312;9.790;2022-07-23T15:57:47;1.98;;;1.15;;
39890;SDS011;25564;53.312;9.790;2022-07-23T16:00:20;1.05;;;0.50;;
39890;SDS011;25564;53.312;9.790;2022-07-23T16:02:51;1.88;;;0.70;;